createdAt,value
2023-04-29T00:00:00.516Z,45.68
2023-04-29T00:03:04.371Z,45.90
2023-04-29T00:06:08.223Z,45.68
2023-04-29T00:09:13.345Z,46.33
2023-04-29T00:12:16.941Z,45.88
2023-04-29T00:15:21.369Z,46.33
2023-04-29T00:18:24.815Z,45.92
2023-04-29T00:21:28.786Z,46.30
2023-04-29T00:24:33.773Z,47.27
2023-04-29T00:27:37.509Z,46.95
2023-04-29T00:30:41.123Z,46.97
2023-04-29T00:33:45.896Z,47.18
2023-04-29T00:36:49.577Z,47.11
2023-04-29T00:39:56.238Z,47.98
2023-04-29T00:42:59.722Z,48.43
2023-04-29T00:46:03.923Z,47.71
2023-04-29T00:49:08.297Z,47.90
2023-04-29T00:52:14.385Z,48.50
2023-04-29T00:55:19.671Z,47.89
2023-04-29T00:58:24.087Z,47.96
2023-04-29T01:01:28.119Z,48.80
2023-04-29T01:04:31.982Z,48.47
2023-04-29T01:07:49.995Z,49.25
2023-04-29T01:11:09.534Z,48.55
2023-04-29T01:14:13.290Z,48.39
2023-04-29T01:17:23.650Z,48.97
2023-04-29T01:20:28.542Z,49.61
2023-04-29T01:23:33.814Z,49.43
2023-04-29T01:26:37.779Z,48.86
2023-04-29T01:29:57.917Z,49.10
2023-04-29T01:33:08.082Z,50.16
2023-04-29T01:36:24.959Z,49.45
2023-04-29T01:39:42.813Z,49.87
2023-04-29T01:43:01.642Z,50.11
2023-04-29T01:46:11.056Z,50.32
2023-04-29T01:49:14.792Z,49.51
2023-04-29T01:52:18.434Z,50.29
2023-04-29T01:55:31.459Z,50.51
2023-04-29T01:58:48.549Z,50.44
2023-04-29T02:02:11.628Z,50.01
2023-04-29T02:05:22.431Z,50.70
2023-04-29T02:08:33.029Z,50.95
2023-04-29T02:11:39.238Z,50.86
2023-04-29T02:14:43.015Z,51.42
2023-04-29T02:17:46.766Z,51.27
2023-04-29T02:20:51.924Z,51.86
2023-04-29T02:23:55.641Z,51.69
2023-04-29T02:27:05.764Z,51.98
2023-04-29T02:30:10.376Z,51.84
2023-04-29T02:33:14.345Z,51.62
2023-04-29T02:36:20.380Z,52.00
2023-04-29T02:39:24.094Z,51.53
2023-04-29T02:42:33.079Z,51.99
2023-04-29T02:45:38.748Z,51.82
2023-04-29T02:48:42.187Z,51.43
2023-04-29T02:51:45.988Z,51.41
2023-04-29T02:54:49.612Z,52.02
2023-04-29T02:57:54.747Z,51.78
2023-04-29T03:00:58.497Z,51.84
2023-04-29T03:04:03.036Z,51.90
2023-04-29T03:07:08.091Z,51.81
2023-04-29T03:10:12.381Z,51.83
2023-04-29T03:13:17.480Z,52.76
2023-04-29T03:16:22.114Z,52.38
2023-04-29T03:19:25.995Z,52.08
2023-04-29T03:22:29.720Z,51.87
2023-04-29T03:25:33.469Z,52.25
2023-04-29T03:28:38.587Z,53.28
2023-04-29T03:31:42.455Z,52.93
2023-04-29T03:34:46.287Z,52.91
2023-04-29T03:38:15.876Z,52.60
2023-04-29T03:41:20.710Z,53.34
2023-04-29T03:44:26.442Z,53.76
2023-04-29T03:47:32.259Z,53.67
2023-04-29T03:50:36.582Z,53.72
2023-04-29T03:53:41.132Z,53.68
2023-04-29T03:56:45.448Z,53.67
2023-04-29T03:59:51.477Z,54.04
2023-04-29T04:02:55.593Z,53.77
2023-04-29T04:05:59.509Z,53.22
2023-04-29T04:09:03.192Z,53.75
2023-04-29T04:12:10.312Z,53.13
2023-04-29T04:15:17.074Z,52.81
2023-04-29T04:18:20.974Z,53.10
2023-04-29T04:21:25.232Z,52.92
2023-04-29T04:24:36.275Z,52.73
2023-04-29T04:27:41.240Z,52.87
2023-04-29T04:30:51.342Z,52.99
2023-04-29T04:33:54.889Z,52.85
2023-04-29T04:36:59.017Z,52.58
2023-04-29T04:40:02.484Z,53.30
2023-04-29T04:43:10.422Z,52.57
2023-04-29T04:46:19.273Z,53.32
2023-04-29T04:49:49.837Z,52.49
2023-04-29T04:52:55.672Z,52.79
2023-04-29T04:56:25.430Z,52.45
2023-04-29T04:59:28.961Z,52.47
2023-04-29T05:02:34.343Z,52.87
2023-04-29T05:05:37.924Z,52.21
2023-04-29T05:08:41.619Z,52.62
2023-04-29T05:11:46.472Z,52.34
2023-04-29T05:14:54.566Z,52.19
2023-04-29T05:17:59.697Z,52.27
2023-04-29T05:21:03.453Z,52.08
2023-04-29T05:24:07.658Z,51.89
2023-04-29T05:27:11.448Z,52.13
2023-04-29T05:30:15.913Z,51.78
2023-04-29T05:33:21.123Z,51.66
2023-04-29T05:36:24.825Z,51.88
2023-04-29T05:39:28.601Z,51.12
2023-04-29T05:42:42.620Z,51.40
2023-04-29T05:45:48.356Z,51.34
2023-04-29T05:48:53.320Z,51.04
2023-04-29T05:51:56.948Z,51.42
2023-04-29T05:55:00.463Z,50.53
2023-04-29T05:58:04.472Z,51.69
2023-04-29T06:01:08.107Z,51.22
2023-04-29T06:04:13.694Z,51.12
2023-04-29T06:07:37.754Z,51.18
2023-04-29T06:11:07.345Z,50.71
2023-04-29T06:14:10.759Z,50.96
2023-04-29T06:17:15.078Z,50.54
2023-04-29T06:20:20.270Z,51.44
2023-04-29T06:23:24.017Z,51.18
2023-04-29T06:26:27.574Z,50.82
2023-04-29T06:29:31.422Z,51.79
2023-04-29T06:32:34.935Z,51.36
2023-04-29T06:35:42.157Z,51.24
2023-04-29T06:39:06.123Z,51.42
2023-04-29T06:42:24.102Z,51.13
2023-04-29T06:46:02.725Z,50.42
2023-04-29T06:49:12.703Z,50.73
2023-04-29T06:52:17.626Z,51.09
2023-04-29T06:55:21.288Z,51.04
2023-04-29T06:58:24.685Z,50.45
2023-04-29T07:01:28.358Z,51.44
2023-04-29T07:04:31.898Z,51.39
2023-04-29T07:07:36.950Z,51.81
2023-04-29T07:10:41.391Z,50.86
2023-04-29T07:13:45.064Z,51.32
2023-04-29T07:16:48.481Z,51.11
2023-04-29T07:19:53.504Z,51.74
2023-04-29T07:22:58.749Z,52.62
2023-04-29T07:26:11.598Z,53.96
2023-04-29T07:29:15.238Z,53.21
2023-04-29T07:32:19.077Z,52.67
2023-04-29T07:35:22.593Z,53.61
2023-04-29T07:38:27.928Z,53.69
2023-04-29T07:41:31.589Z,53.69
2023-04-29T07:44:36.306Z,54.43
2023-04-29T07:47:40.059Z,54.48
2023-04-29T07:50:44.271Z,54.49
2023-04-29T07:53:49.206Z,54.66
2023-04-29T07:56:52.824Z,54.90
2023-04-29T07:59:57.649Z,55.52
2023-04-29T08:03:01.404Z,56.01
2023-04-29T08:06:06.762Z,55.91
2023-04-29T08:09:13.179Z,55.47
2023-04-29T08:12:18.551Z,56.00
2023-04-29T08:15:22.232Z,55.13
2023-04-29T08:18:25.670Z,54.89
2023-04-29T08:21:29.386Z,55.42
2023-04-29T08:24:35.205Z,55.81
2023-04-29T08:27:39.077Z,56.13
2023-04-29T08:30:42.972Z,55.87
2023-04-29T08:33:46.844Z,55.69
2023-04-29T08:36:50.242Z,56.03
2023-04-29T08:39:55.280Z,56.77
2023-04-29T08:43:00.736Z,56.96
2023-04-29T08:46:05.261Z,56.15
2023-04-29T08:49:09.350Z,56.02
2023-04-29T08:52:13.024Z,56.99
2023-04-29T08:55:18.438Z,56.08
2023-04-29T08:58:23.794Z,56.37
2023-04-29T09:01:30.437Z,56.15
2023-04-29T09:04:49.085Z,56.66
2023-04-29T09:07:54.115Z,55.99
2023-04-29T09:11:00.500Z,55.50
2023-04-29T09:14:05.491Z,55.63
2023-04-29T09:17:09.132Z,55.33
2023-04-29T09:20:30.511Z,56.25
2023-04-29T09:23:38.918Z,55.13
2023-04-29T09:26:44.840Z,55.11
2023-04-29T09:30:02.399Z,55.01
2023-04-29T09:33:09.010Z,54.85
2023-04-29T09:36:12.759Z,54.80
2023-04-29T09:39:18.965Z,54.95
2023-04-29T09:42:24.455Z,55.26
2023-04-29T09:45:38.148Z,55.75
2023-04-29T09:48:41.782Z,55.39
2023-04-29T09:51:55.065Z,55.45
2023-04-29T09:55:07.966Z,55.43
2023-04-29T09:58:31.240Z,55.79
2023-04-29T10:01:36.788Z,54.88
2023-04-29T10:04:43.428Z,53.35
2023-04-29T10:07:49.152Z,54.00
2023-04-29T10:10:57.808Z,53.20
2023-04-29T10:14:06.779Z,52.19
2023-04-29T10:17:20.128Z,52.25
2023-04-29T10:20:26.931Z,51.79
2023-04-29T10:23:32.301Z,51.29
2023-04-29T10:26:40.257Z,50.88
2023-04-29T10:29:47.086Z,50.79
2023-04-29T10:32:53.087Z,50.02
2023-04-29T10:35:57.812Z,49.31
2023-04-29T10:39:06.088Z,48.63
2023-04-29T10:42:29.406Z,48.69
2023-04-29T10:45:36.143Z,48.47
2023-04-29T10:48:39.941Z,48.41
2023-04-29T10:51:45.872Z,48.72
2023-04-29T10:55:04.149Z,47.83
2023-04-29T10:58:28.233Z,48.67
2023-04-29T11:01:48.895Z,49.17
2023-04-29T11:05:12.390Z,49.43
2023-04-29T11:08:23.922Z,49.75
2023-04-29T11:11:28.709Z,49.50
2023-04-29T11:14:37.949Z,49.37
2023-04-29T11:17:43.036Z,49.12
2023-04-29T11:21:14.029Z,49.32
2023-04-29T11:24:17.645Z,49.55
2023-04-29T11:27:25.540Z,49.49
2023-04-29T11:30:31.474Z,49.79
2023-04-29T11:33:36.459Z,49.82
2023-04-29T11:36:40.314Z,50.60
2023-04-29T11:39:43.910Z,51.43
2023-04-29T11:42:49.865Z,51.85
2023-04-29T11:45:54.881Z,51.92
2023-04-29T11:49:01.398Z,52.29
2023-04-29T11:52:06.094Z,52.89
2023-04-29T11:55:11.709Z,52.76
2023-04-29T11:58:16.301Z,52.47
2023-04-29T12:01:21.631Z,52.55
2023-04-29T12:04:26.995Z,52.25
2023-04-29T12:07:31.123Z,51.20
2023-04-29T12:10:37.653Z,52.08
2023-04-29T12:13:41.918Z,51.52
2023-04-29T12:16:46.399Z,51.96
2023-04-29T12:19:52.135Z,51.74
2023-04-29T12:22:55.916Z,52.00
2023-04-29T12:26:02.668Z,51.65
2023-04-29T12:29:06.165Z,52.06
2023-04-29T12:32:17.816Z,51.85
2023-04-29T12:35:23.136Z,51.08
2023-04-29T12:38:29.259Z,51.17
2023-04-29T12:41:40.972Z,50.99
2023-04-29T12:44:47.501Z,50.15
2023-04-29T12:47:52.379Z,50.58
2023-04-29T12:50:58.513Z,50.29
2023-04-29T12:54:03.991Z,50.41
2023-04-29T12:57:08.491Z,49.85
2023-04-29T13:00:14.614Z,49.29
2023-04-29T13:03:19.788Z,48.68
2023-04-29T13:06:27.362Z,48.67
2023-04-29T13:09:31.554Z,48.30
2023-04-29T13:12:34.994Z,47.99
2023-04-29T13:15:39.700Z,48.89
2023-04-29T13:18:53.658Z,49.15
2023-04-29T13:22:08.285Z,49.56
2023-04-29T13:25:13.508Z,50.03
2023-04-29T13:28:17.509Z,50.99
2023-04-29T13:31:21.118Z,51.05
2023-04-29T13:34:24.808Z,50.88
2023-04-29T13:37:29.634Z,51.01
2023-04-29T13:40:38.237Z,51.13
2023-04-29T13:43:43.642Z,50.35
2023-04-29T13:46:47.950Z,49.46
2023-04-29T13:53:23.591Z,47.24
2023-04-29T13:59:42.625Z,40.65
2023-04-29T14:05:58.628Z,39.62
2023-04-29T14:09:04.188Z,41.01
2023-04-29T14:12:08.456Z,42.38
2023-04-29T14:15:12.926Z,43.56
2023-04-29T14:18:16.560Z,44.59
2023-04-29T14:21:22.413Z,44.18
2023-04-29T14:24:27.569Z,45.35
2023-04-29T14:27:31.416Z,46.08
2023-04-29T14:30:35.052Z,46.74
2023-04-29T14:33:38.544Z,47.06
2023-04-29T14:36:42.178Z,43.63
2023-04-29T14:39:47.080Z,36.68
2023-04-29T14:42:50.947Z,35.91
2023-04-29T14:45:54.546Z,35.85
2023-04-29T14:48:58.400Z,32.67
2023-04-29T14:52:02.124Z,31.35
2023-04-29T14:55:07.863Z,30.27
2023-04-29T14:58:11.411Z,34.23
2023-04-29T15:01:15.103Z,36.27
2023-04-29T15:04:18.741Z,38.39
2023-04-29T15:07:22.823Z,38.53
2023-04-29T15:10:27.716Z,34.97
2023-04-29T15:13:32.130Z,31.02
2023-04-29T15:16:36.532Z,28.62
2023-04-29T15:19:40.144Z,27.91
2023-04-29T15:22:43.875Z,28.20
2023-04-29T15:25:49.139Z,30.08
2023-04-29T15:28:52.863Z,33.33
2023-04-29T15:31:56.769Z,33.21
2023-04-29T15:35:00.539Z,30.24
2023-04-29T15:38:04.283Z,28.68
2023-04-29T15:41:09.166Z,27.21
2023-04-29T15:44:12.992Z,28.24
2023-04-29T15:47:16.388Z,31.61
2023-04-29T15:50:20.015Z,33.93
2023-04-29T15:53:23.665Z,33.68
2023-04-29T15:56:28.752Z,32.08
2023-04-29T15:59:32.913Z,33.87
2023-04-29T16:02:37.046Z,35.73
2023-04-29T16:05:40.849Z,37.29
2023-04-29T16:08:44.565Z,35.09
2023-04-29T16:11:49.634Z,32.83
2023-04-29T16:14:53.344Z,30.92
2023-04-29T16:17:57.104Z,30.12
2023-04-29T16:21:01.175Z,29.63
2023-04-29T16:24:05.649Z,29.36
2023-04-29T16:27:10.879Z,28.31
2023-04-29T16:30:14.819Z,28.67
2023-04-29T16:33:18.491Z,28.50
2023-04-29T16:36:22.893Z,28.35
2023-04-29T16:39:26.791Z,28.44
2023-04-29T16:42:31.806Z,29.29
2023-04-29T16:45:35.761Z,29.00
2023-04-29T16:48:39.198Z,30.73
2023-04-29T16:51:42.912Z,32.31
2023-04-29T16:54:46.411Z,34.49
2023-04-29T16:57:51.423Z,36.56
2023-04-29T17:00:55.260Z,38.49
2023-04-29T17:03:59.412Z,39.99
2023-04-29T17:07:03.851Z,41.16
2023-04-29T17:10:09.635Z,42.06
2023-04-29T17:13:14.809Z,43.14
2023-04-29T17:16:18.819Z,44.14
2023-04-29T17:19:22.230Z,44.81
2023-04-29T17:22:26.415Z,45.93
2023-04-29T17:25:30.250Z,45.88
2023-04-29T17:28:35.515Z,46.57
2023-04-29T17:31:45.871Z,47.20
2023-04-29T17:34:49.563Z,48.44
2023-04-29T17:37:53.284Z,49.00
2023-04-29T17:40:57.168Z,50.05
2023-04-29T17:44:02.379Z,50.94
2023-04-29T17:47:09.258Z,51.33
2023-04-29T17:50:13.914Z,52.08
2023-04-29T17:53:17.573Z,52.02
2023-04-29T17:56:23.496Z,52.21
2023-04-29T17:59:28.899Z,52.49
2023-04-29T18:02:32.791Z,53.43
2023-04-29T18:05:36.514Z,53.58
2023-04-29T18:08:40.104Z,55.29
2023-04-29T18:11:43.780Z,54.56
2023-04-29T18:14:49.036Z,54.65
2023-04-29T18:17:54.236Z,55.03
2023-04-29T18:20:57.848Z,54.91
2023-04-29T18:24:01.539Z,55.16
2023-04-29T18:27:05.641Z,55.47
2023-04-29T18:30:12.053Z,55.59
2023-04-29T18:33:16.539Z,55.90
2023-04-29T18:36:21.419Z,55.96
2023-04-29T18:39:25.012Z,55.91
2023-04-29T18:42:28.655Z,56.23
2023-04-29T18:45:33.569Z,56.42
2023-04-29T18:48:38.899Z,56.02
2023-04-29T18:51:46.398Z,56.03
2023-04-29T18:54:50.119Z,56.66
2023-04-29T18:57:53.589Z,57.04
2023-04-29T19:00:59.963Z,57.02
2023-04-29T19:04:04.979Z,57.53
2023-04-29T19:07:08.659Z,57.68
2023-04-29T19:10:13.289Z,57.56
2023-04-29T19:13:17.254Z,57.95
2023-04-29T19:16:23.502Z,57.59
2023-04-29T19:19:27.506Z,58.06
2023-04-29T19:22:32.239Z,58.71
2023-04-29T19:25:35.950Z,58.68
2023-04-29T19:28:39.707Z,59.42
2023-04-29T19:31:45.278Z,60.28
2023-04-29T19:34:48.987Z,60.55
2023-04-29T19:37:54.704Z,60.79
2023-04-29T19:40:58.413Z,60.58
2023-04-29T19:44:02.219Z,61.08
2023-04-29T19:47:07.491Z,61.83
2023-04-29T19:50:11.536Z,61.02
2023-04-29T19:53:15.005Z,60.95
2023-04-29T19:56:19.960Z,61.35
2023-04-29T19:59:23.956Z,61.01
2023-04-29T20:02:29.209Z,62.71
2023-04-29T20:05:32.798Z,62.53
2023-04-29T20:08:36.871Z,62.95
2023-04-29T20:11:40.299Z,62.16
2023-04-29T20:14:43.931Z,63.00
2023-04-29T20:17:49.822Z,66.31
2023-04-29T20:20:53.712Z,63.51
2023-04-29T20:23:57.285Z,63.93
2023-04-29T20:27:01.510Z,63.00
2023-04-29T20:30:06.172Z,64.16
2023-04-29T20:33:11.300Z,65.28
2023-04-29T20:36:15.469Z,64.43
2023-04-29T20:39:19.401Z,66.07
2023-04-29T20:42:23.093Z,65.42
2023-04-29T20:45:27.078Z,64.64
2023-04-29T20:48:32.072Z,65.24
2023-04-29T20:51:35.847Z,65.30
2023-04-29T20:54:39.485Z,65.39
2023-04-29T20:57:43.112Z,64.56
2023-04-29T21:00:46.595Z,65.37
2023-04-29T21:03:52.211Z,65.76
2023-04-29T21:06:55.863Z,65.11
2023-04-29T21:09:59.482Z,66.14
2023-04-29T21:13:03.624Z,66.49
2023-04-29T21:16:07.522Z,65.89
2023-04-29T21:19:12.413Z,66.02
2023-04-29T21:22:16.074Z,65.89
2023-04-29T21:25:19.675Z,65.58
2023-04-29T21:28:23.291Z,66.38
2023-04-29T21:31:26.954Z,66.32
2023-04-29T21:34:32.087Z,66.84
2023-04-29T21:37:35.808Z,67.51
2023-04-29T21:40:43.335Z,68.15
2023-04-29T21:43:46.924Z,67.59
2023-04-29T21:46:51.173Z,67.11
2023-04-29T21:49:56.813Z,68.70
2023-04-29T21:53:00.784Z,67.80
2023-04-29T21:56:05.134Z,68.36
2023-04-29T21:59:08.849Z,68.05
2023-04-29T22:02:22.389Z,67.05
2023-04-29T22:05:27.639Z,70.05
2023-04-29T22:08:31.199Z,68.52
2023-04-29T22:11:35.029Z,67.91
2023-04-29T22:14:38.766Z,67.95
2023-04-29T22:17:42.429Z,67.89
2023-04-29T22:20:47.527Z,68.59
2023-04-29T22:23:51.387Z,68.88
2023-04-29T22:26:54.865Z,68.43
2023-04-29T22:29:58.502Z,68.79
2023-04-29T22:33:02.420Z,68.77
2023-04-29T22:36:08.159Z,69.80
2023-04-29T22:39:11.633Z,68.90
2023-04-29T22:42:15.646Z,68.67
2023-04-29T22:45:19.525Z,68.80
2023-04-29T22:48:27.262Z,68.73
2023-04-29T22:51:32.771Z,68.34
2023-04-29T22:54:36.515Z,68.61
2023-04-29T22:57:40.244Z,69.49
2023-04-29T23:00:45.280Z,68.80
2023-04-29T23:03:48.787Z,68.32
2023-04-29T23:06:53.802Z,70.34
2023-04-29T23:09:57.216Z,69.00
2023-04-29T23:13:01.060Z,69.59
2023-04-29T23:16:04.685Z,68.82
2023-04-29T23:19:08.720Z,70.37
2023-04-29T23:22:13.533Z,69.31
2023-04-29T23:25:17.610Z,69.98
2023-04-29T23:28:21.116Z,69.29
2023-04-29T23:31:24.814Z,69.66
2023-04-29T23:34:28.388Z,70.87
2023-04-29T23:37:33.411Z,69.71
2023-04-29T23:40:36.893Z,70.80
2023-04-29T23:43:40.761Z,71.29
2023-04-29T23:46:44.293Z,71.04
2023-04-29T23:49:47.970Z,70.68
2023-04-29T23:52:53.408Z,71.17
2023-04-29T23:55:57.074Z,71.91
2023-04-29T23:59:00.988Z,71.55
